sensor_id;sensor_type;location;lat;lon;timestamp;P1;durP1;ratioP1;P2;durP2;ratioP2
83835;SDS011;73859;40.830;43.828;2024-01-11T00:00:35;0.82;;;0.52;;
83835;SDS011;73859;40.830;43.828;2024-01-11T00:03:03;0.82;;;0.60;;
83835;SDS011;73859;40.830;43.828;2024-01-11T00:05:30;1.00;;;0.60;;
83835;SDS011;73859;40.830;43.828;2024-01-11T00:07:58;2.30;;;0.90;;
83835;SDS011;73859;40.830;43.828;2024-01-11T00:10:25;1.83;;;0.65;;
83835;SDS011;73859;40.830;43.828;2024-01-11T00:12:53;1.35;;;0.65;;
83835;SDS011;73859;40.830;43.828;2024-01-11T00:15:20;1.90;;;0.88;;
83835;SDS011;73859;40.830;43.828;2024-01-11T00:17:48;1.77;;;0.77;;
83835;SDS011;73859;40.830;43.828;2024-01-11T00:20:15;1.38;;;0.63;;
83835;SDS011;73859;40.830;43.828;2024-01-11T00:22:43;1.83;;;0.80;;
83835;SDS011;73859;40.830;43.828;2024-01-11T00:25:11;1.33;;;0.63;;
83835;SDS011;73859;40.830;43.828;2024-01-11T00:27:38;1.83;;;0.88;;
83835;SDS011;73859;40.830;43.828;2024-01-11T00:30:06;1.15;;;0.63;;
83835;SDS011;73859;40.830;43.828;2024-01-11T00:32:34;1.65;;;0.85;;
83835;SDS011;73859;40.830;43.828;2024-01-11T00:35:02;1.88;;;0.90;;
83835;SDS011;73859;40.830;43.828;2024-01-11T00:37:29;4.07;;;1.63;;
83835;SDS011;73859;40.830;43.828;2024-01-11T00:39:57;3.13;;;1.20;;
83835;SDS011;73859;40.830;43.828;2024-01-11T00:42:24;6.13;;;2.92;;
83835;SDS011;73859;40.830;43.828;2024-01-11T00:44:52;6.05;;;2.55;;
83835;SDS011;73859;40.830;43.828;2024-01-11T00:47:19;6.25;;;2.70;;
83835;SDS011;73859;40.830;43.828;2024-01-11T00:49:46;8.65;;;3.22;;
83835;SDS011;73859;40.830;43.828;2024-01-11T00:52:14;10.02;;;4.50;;
83835;SDS011;73859;40.830;43.828;2024-01-11T00:54:41;6.28;;;3.25;;
83835;SDS011;73859;40.830;43.828;2024-01-11T00:57:09;7.60;;;2.95;;
83835;SDS011;73859;40.830;43.828;2024-01-11T00:59:36;3.30;;;1.38;;
83835;SDS011;73859;40.830;43.828;2024-01-11T01:02:03;1.88;;;1.27;;
83835;SDS011;73859;40.830;43.828;2024-01-11T01:04:31;0.75;;;0.57;;
83835;SDS011;73859;40.830;43.828;2024-01-11T01:06:58;2.10;;;1.00;;
83835;SDS011;73859;40.830;43.828;2024-01-11T01:09:25;2.15;;;0.90;;
83835;SDS011;73859;40.830;43.828;2024-01-11T01:11:53;1.20;;;0.60;;
83835;SDS011;73859;40.830;43.828;2024-01-11T01:14:20;1.55;;;0.80;;
83835;SDS011;73859;40.830;43.828;2024-01-11T01:16:48;1.80;;;0.90;;
83835;SDS011;73859;40.830;43.828;2024-01-11T01:22:37;1.88;;;0.88;;
83835;SDS011;73859;40.830;43.828;2024-01-11T01:25:04;1.40;;;0.70;;
83835;SDS011;73859;40.830;43.828;2024-01-11T01:27:33;1.13;;;0.50;;
83835;SDS011;73859;40.830;43.828;2024-01-11T01:30:01;1.17;;;0.80;;
83835;SDS011;73859;40.830;43.828;2024-01-11T01:32:29;1.52;;;0.70;;
83835;SDS011;73859;40.830;43.828;2024-01-11T01:37:52;0.77;;;0.60;;
83835;SDS011;73859;40.830;43.828;2024-01-11T01:40:19;1.42;;;0.70;;
83835;SDS011;73859;40.830;43.828;2024-01-11T01:42:48;1.58;;;0.65;;
83835;SDS011;73859;40.830;43.828;2024-01-11T01:45:15;3.03;;;2.08;;
83835;SDS011;73859;40.830;43.828;2024-01-11T01:50:12;2.63;;;1.60;;
83835;SDS011;73859;40.830;43.828;2024-01-11T01:52:41;2.42;;;1.33;;
83835;SDS011;73859;40.830;43.828;2024-01-11T01:55:10;1.45;;;0.80;;
83835;SDS011;73859;40.830;43.828;2024-01-11T02:00:40;1.20;;;0.65;;
83835;SDS011;73859;40.830;43.828;2024-01-11T02:05:36;6.22;;;2.67;;
83835;SDS011;73859;40.830;43.828;2024-01-11T02:08:04;5.75;;;3.00;;
83835;SDS011;73859;40.830;43.828;2024-01-11T02:10:36;6.85;;;3.80;;
83835;SDS011;73859;40.830;43.828;2024-01-11T02:13:04;8.93;;;4.47;;
83835;SDS011;73859;40.830;43.828;2024-01-11T02:15:36;10.32;;;4.38;;
83835;SDS011;73859;40.830;43.828;2024-01-11T02:18:04;6.63;;;3.60;;
83835;SDS011;73859;40.830;43.828;2024-01-11T02:20:31;9.23;;;4.00;;
83835;SDS011;73859;40.830;43.828;2024-01-11T02:23:01;5.65;;;3.50;;
83835;SDS011;73859;40.830;43.828;2024-01-11T02:25:33;2.60;;;1.33;;
83835;SDS011;73859;40.830;43.828;2024-01-11T02:28:00;3.60;;;1.35;;
83835;SDS011;73859;40.830;43.828;2024-01-11T02:30:28;2.08;;;1.00;;
83835;SDS011;73859;40.830;43.828;2024-01-11T02:32:55;2.20;;;0.90;;
83835;SDS011;73859;40.830;43.828;2024-01-11T02:37:52;1.65;;;1.27;;
83835;SDS011;73859;40.830;43.828;2024-01-11T02:40:20;2.10;;;1.00;;
83835;SDS011;73859;40.830;43.828;2024-01-11T02:42:49;1.60;;;0.70;;
83835;SDS011;73859;40.830;43.828;2024-01-11T02:45:16;3.85;;;1.35;;
83835;SDS011;73859;40.830;43.828;2024-01-11T02:47:45;4.78;;;1.83;;
83835;SDS011;73859;40.830;43.828;2024-01-11T02:50:13;4.68;;;2.38;;
83835;SDS011;73859;40.830;43.828;2024-01-11T02:52:40;6.40;;;2.40;;
83835;SDS011;73859;40.830;43.828;2024-01-11T02:55:08;5.85;;;2.47;;
83835;SDS011;73859;40.830;43.828;2024-01-11T02:57:36;3.90;;;1.92;;
83835;SDS011;73859;40.830;43.828;2024-01-11T03:00:04;5.07;;;2.35;;
83835;SDS011;73859;40.830;43.828;2024-01-11T03:02:32;4.95;;;2.10;;
83835;SDS011;73859;40.830;43.828;2024-01-11T03:05:00;2.80;;;1.67;;
83835;SDS011;73859;40.830;43.828;2024-01-11T03:07:27;2.38;;;1.20;;
83835;SDS011;73859;40.830;43.828;2024-01-11T03:09:56;3.28;;;1.23;;
83835;SDS011;73859;40.830;43.828;2024-01-11T03:12:24;2.20;;;1.40;;
83835;SDS011;73859;40.830;43.828;2024-01-11T03:14:53;6.05;;;1.50;;
83835;SDS011;73859;40.830;43.828;2024-01-11T03:17:20;3.17;;;1.27;;
83835;SDS011;73859;40.830;43.828;2024-01-11T03:19:48;1.98;;;1.10;;
83835;SDS011;73859;40.830;43.828;2024-01-11T03:22:15;0.63;;;0.40;;
83835;SDS011;73859;40.830;43.828;2024-01-11T03:24:43;1.38;;;0.80;;
83835;SDS011;73859;40.830;43.828;2024-01-11T03:27:10;1.15;;;0.50;;
83835;SDS011;73859;40.830;43.828;2024-01-11T03:29:38;1.50;;;0.65;;
83835;SDS011;73859;40.830;43.828;2024-01-11T03:32:05;1.48;;;0.90;;
83835;SDS011;73859;40.830;43.828;2024-01-11T03:34:33;1.92;;;1.15;;
83835;SDS011;73859;40.830;43.828;2024-01-11T03:37:01;9.25;;;4.07;;
83835;SDS011;73859;40.830;43.828;2024-01-11T03:39:28;8.05;;;3.92;;
83835;SDS011;73859;40.830;43.828;2024-01-11T03:41:56;12.57;;;4.68;;
83835;SDS011;73859;40.830;43.828;2024-01-11T03:44:23;6.68;;;3.05;;
83835;SDS011;73859;40.830;43.828;2024-01-11T03:46:51;5.72;;;3.03;;
83835;SDS011;73859;40.830;43.828;2024-01-11T03:49:18;5.20;;;3.13;;
83835;SDS011;73859;40.830;43.828;2024-01-11T03:51:46;7.85;;;3.70;;
83835;SDS011;73859;40.830;43.828;2024-01-11T03:54:13;6.28;;;3.00;;
83835;SDS011;73859;40.830;43.828;2024-01-11T03:56:40;7.45;;;3.30;;
83835;SDS011;73859;40.830;43.828;2024-01-11T03:59:08;5.32;;;3.15;;
83835;SDS011;73859;40.830;43.828;2024-01-11T04:01:39;15.55;;;3.55;;
83835;SDS011;73859;40.830;43.828;2024-01-11T04:04:10;6.13;;;3.03;;
83835;SDS011;73859;40.830;43.828;2024-01-11T04:09:05;5.85;;;3.08;;
83835;SDS011;73859;40.830;43.828;2024-01-11T04:11:34;6.72;;;3.00;;
83835;SDS011;73859;40.830;43.828;2024-01-11T04:16:29;3.63;;;2.20;;
83835;SDS011;73859;40.830;43.828;2024-01-11T04:18:57;6.15;;;3.15;;
83835;SDS011;73859;40.830;43.828;2024-01-11T04:21:25;3.55;;;2.00;;
83835;SDS011;73859;40.830;43.828;2024-01-11T04:23:56;5.35;;;2.67;;
83835;SDS011;73859;40.830;43.828;2024-01-11T04:26:24;4.65;;;2.55;;
83835;SDS011;73859;40.830;43.828;2024-01-11T04:28:53;5.60;;;2.80;;
83835;SDS011;73859;40.830;43.828;2024-01-11T04:31:24;9.85;;;2.95;;
83835;SDS011;73859;40.830;43.828;2024-01-11T04:33:51;5.10;;;2.45;;
83835;SDS011;73859;40.830;43.828;2024-01-11T04:36:19;8.25;;;3.17;;
83835;SDS011;73859;40.830;43.828;2024-01-11T04:38:47;8.27;;;3.60;;
83835;SDS011;73859;40.830;43.828;2024-01-11T04:41:14;5.20;;;2.50;;
83835;SDS011;73859;40.830;43.828;2024-01-11T04:43:42;9.13;;;6.03;;
83835;SDS011;73859;40.830;43.828;2024-01-11T04:46:18;8.77;;;4.82;;
83835;SDS011;73859;40.830;43.828;2024-01-11T04:48:47;24.77;;;11.75;;
83835;SDS011;73859;40.830;43.828;2024-01-11T04:51:19;12.75;;;5.40;;
83835;SDS011;73859;40.830;43.828;2024-01-11T04:53:47;9.15;;;3.78;;
83835;SDS011;73859;40.830;43.828;2024-01-11T04:56:15;5.50;;;3.17;;
83835;SDS011;73859;40.830;43.828;2024-01-11T05:01:15;4.82;;;2.88;;
83835;SDS011;73859;40.830;43.828;2024-01-11T05:03:44;6.95;;;3.75;;
83835;SDS011;73859;40.830;43.828;2024-01-11T05:08:44;7.10;;;2.60;;
83835;SDS011;73859;40.830;43.828;2024-01-11T05:11:17;6.00;;;2.95;;
83835;SDS011;73859;40.830;43.828;2024-01-11T05:13:46;7.00;;;2.33;;
83835;SDS011;73859;40.830;43.828;2024-01-11T05:16:19;6.50;;;2.47;;
83835;SDS011;73859;40.830;43.828;2024-01-11T05:18:47;4.72;;;1.90;;
83835;SDS011;73859;40.830;43.828;2024-01-11T05:21:16;7.97;;;2.35;;
83835;SDS011;73859;40.830;43.828;2024-01-11T05:23:43;3.63;;;1.73;;
83835;SDS011;73859;40.830;43.828;2024-01-11T05:26:12;4.07;;;2.00;;
83835;SDS011;73859;40.830;43.828;2024-01-11T05:28:40;3.88;;;1.63;;
83835;SDS011;73859;40.830;43.828;2024-01-11T05:31:11;5.03;;;3.05;;
83835;SDS011;73859;40.830;43.828;2024-01-11T05:33:40;6.22;;;2.30;;
83835;SDS011;73859;40.830;43.828;2024-01-11T05:36:08;6.53;;;2.78;;
83835;SDS011;73859;40.830;43.828;2024-01-11T05:38:36;4.85;;;2.40;;
83835;SDS011;73859;40.830;43.828;2024-01-11T05:41:05;5.40;;;2.60;;
83835;SDS011;73859;40.830;43.828;2024-01-11T05:43:33;4.13;;;2.25;;
83835;SDS011;73859;40.830;43.828;2024-01-11T05:46:00;5.53;;;2.50;;
83835;SDS011;73859;40.830;43.828;2024-01-11T05:48:28;3.53;;;1.83;;
83835;SDS011;73859;40.830;43.828;2024-01-11T05:50:56;6.50;;;2.22;;
83835;SDS011;73859;40.830;43.828;2024-01-11T05:53:23;6.82;;;2.45;;
83835;SDS011;73859;40.830;43.828;2024-01-11T05:55:52;3.42;;;1.98;;
83835;SDS011;73859;40.830;43.828;2024-01-11T05:58:21;4.18;;;2.42;;
83835;SDS011;73859;40.830;43.828;2024-01-11T06:00:48;6.55;;;3.00;;
83835;SDS011;73859;40.830;43.828;2024-01-11T06:03:16;5.50;;;3.10;;
83835;SDS011;73859;40.830;43.828;2024-01-11T06:05:43;6.13;;;2.72;;
83835;SDS011;73859;40.830;43.828;2024-01-11T06:08:11;4.30;;;2.72;;
83835;SDS011;73859;40.830;43.828;2024-01-11T06:10:39;5.78;;;3.10;;
83835;SDS011;73859;40.830;43.828;2024-01-11T06:13:06;6.03;;;2.47;;
83835;SDS011;73859;40.830;43.828;2024-01-11T06:15:34;8.45;;;3.38;;
83835;SDS011;73859;40.830;43.828;2024-01-11T06:18:02;7.93;;;3.78;;
83835;SDS011;73859;40.830;43.828;2024-01-11T06:20:30;6.30;;;3.40;;
83835;SDS011;73859;40.830;43.828;2024-01-11T06:22:57;15.55;;;5.25;;
83835;SDS011;73859;40.830;43.828;2024-01-11T06:25:24;5.15;;;2.28;;
83835;SDS011;73859;40.830;43.828;2024-01-11T06:27:52;5.28;;;2.78;;
83835;SDS011;73859;40.830;43.828;2024-01-11T06:30:19;6.30;;;2.17;;
83835;SDS011;73859;40.830;43.828;2024-01-11T06:32:47;5.10;;;2.85;;
83835;SDS011;73859;40.830;43.828;2024-01-11T06:35:14;7.63;;;3.00;;
83835;SDS011;73859;40.830;43.828;2024-01-11T06:37:42;8.15;;;3.65;;
83835;SDS011;73859;40.830;43.828;2024-01-11T06:40:10;4.28;;;2.90;;
83835;SDS011;73859;40.830;43.828;2024-01-11T06:42:38;2.80;;;1.55;;
83835;SDS011;73859;40.830;43.828;2024-01-11T06:45:05;5.00;;;1.90;;
83835;SDS011;73859;40.830;43.828;2024-01-11T06:47:33;7.50;;;4.00;;
83835;SDS011;73859;40.830;43.828;2024-01-11T06:50:01;7.13;;;2.90;;
83835;SDS011;73859;40.830;43.828;2024-01-11T06:52:29;3.97;;;2.40;;
83835;SDS011;73859;40.830;43.828;2024-01-11T06:54:57;7.18;;;2.28;;
83835;SDS011;73859;40.830;43.828;2024-01-11T06:57:25;8.93;;;2.85;;
83835;SDS011;73859;40.830;43.828;2024-01-11T06:59:52;5.15;;;2.50;;
83835;SDS011;73859;40.830;43.828;2024-01-11T07:02:20;3.15;;;1.98;;
83835;SDS011;73859;40.830;43.828;2024-01-11T07:04:47;5.50;;;2.60;;
83835;SDS011;73859;40.830;43.828;2024-01-11T07:07:15;5.45;;;2.80;;
83835;SDS011;73859;40.830;43.828;2024-01-11T07:09:42;4.75;;;2.30;;
83835;SDS011;73859;40.830;43.828;2024-01-11T07:12:10;4.35;;;2.38;;
83835;SDS011;73859;40.830;43.828;2024-01-11T07:14:37;4.35;;;2.63;;
83835;SDS011;73859;40.830;43.828;2024-01-11T07:17:05;5.32;;;2.50;;
83835;SDS011;73859;40.830;43.828;2024-01-11T07:19:32;7.72;;;2.35;;
83835;SDS011;73859;40.830;43.828;2024-01-11T07:22:01;7.15;;;2.72;;
83835;SDS011;73859;40.830;43.828;2024-01-11T07:24:28;4.13;;;2.30;;
83835;SDS011;73859;40.830;43.828;2024-01-11T07:27:05;5.72;;;2.40;;
83835;SDS011;73859;40.830;43.828;2024-01-11T07:29:33;5.57;;;2.00;;
83835;SDS011;73859;40.830;43.828;2024-01-11T07:32:00;6.88;;;2.35;;
83835;SDS011;73859;40.830;43.828;2024-01-11T07:34:31;8.93;;;4.28;;
83835;SDS011;73859;40.830;43.828;2024-01-11T07:37:00;12.90;;;5.28;;
83835;SDS011;73859;40.830;43.828;2024-01-11T07:39:28;10.27;;;4.32;;
83835;SDS011;73859;40.830;43.828;2024-01-11T07:41:58;7.90;;;4.68;;
83835;SDS011;73859;40.830;43.828;2024-01-11T07:44:25;9.85;;;4.85;;
83835;SDS011;73859;40.830;43.828;2024-01-11T07:46:53;9.32;;;4.32;;
83835;SDS011;73859;40.830;43.828;2024-01-11T07:49:24;8.15;;;4.25;;
83835;SDS011;73859;40.830;43.828;2024-01-11T07:51:52;7.53;;;3.88;;
83835;SDS011;73859;40.830;43.828;2024-01-11T07:54:19;9.20;;;3.45;;
83835;SDS011;73859;40.830;43.828;2024-01-11T07:56:46;10.75;;;4.72;;
83835;SDS011;73859;40.830;43.828;2024-01-11T07:59:14;12.10;;;4.70;;
83835;SDS011;73859;40.830;43.828;2024-01-11T08:01:42;9.73;;;4.30;;
83835;SDS011;73859;40.830;43.828;2024-01-11T08:04:09;9.07;;;2.72;;
83835;SDS011;73859;40.830;43.828;2024-01-11T08:06:37;4.60;;;1.90;;
83835;SDS011;73859;40.830;43.828;2024-01-11T08:09:05;2.75;;;1.50;;
83835;SDS011;73859;40.830;43.828;2024-01-11T08:11:32;2.75;;;1.27;;
83835;SDS011;73859;40.830;43.828;2024-01-11T08:14:04;2.85;;;1.45;;
83835;SDS011;73859;40.830;43.828;2024-01-11T08:16:33;2.13;;;1.30;;
83835;SDS011;73859;40.830;43.828;2024-01-11T08:19:00;6.60;;;1.55;;
83835;SDS011;73859;40.830;43.828;2024-01-11T08:21:28;2.58;;;1.13;;
83835;SDS011;73859;40.830;43.828;2024-01-11T08:23:56;3.88;;;1.45;;
83835;SDS011;73859;40.830;43.828;2024-01-11T08:26:29;3.35;;;1.50;;
83835;SDS011;73859;40.830;43.828;2024-01-11T08:28:57;5.40;;;1.80;;
83835;SDS011;73859;40.830;43.828;2024-01-11T08:31:25;16.10;;;6.45;;
83835;SDS011;73859;40.830;43.828;2024-01-11T08:33:53;22.95;;;10.10;;
83835;SDS011;73859;40.830;43.828;2024-01-11T08:36:20;13.07;;;6.25;;
83835;SDS011;73859;40.830;43.828;2024-01-11T08:38:48;9.23;;;4.60;;
83835;SDS011;73859;40.830;43.828;2024-01-11T08:41:16;7.70;;;4.20;;
83835;SDS011;73859;40.830;43.828;2024-01-11T08:43:44;15.85;;;8.05;;
83835;SDS011;73859;40.830;43.828;2024-01-11T08:46:11;15.27;;;8.32;;
83835;SDS011;73859;40.830;43.828;2024-01-11T08:48:49;29.83;;;15.82;;
83835;SDS011;73859;40.830;43.828;2024-01-11T08:51:17;19.95;;;8.80;;
83835;SDS011;73859;40.830;43.828;2024-01-11T08:53:45;23.20;;;9.85;;
83835;SDS011;73859;40.830;43.828;2024-01-11T08:56:12;15.85;;;8.57;;
83835;SDS011;73859;40.830;43.828;2024-01-11T08:58:40;13.02;;;5.65;;
83835;SDS011;73859;40.830;43.828;2024-01-11T09:01:11;9.90;;;4.78;;
83835;SDS011;73859;40.830;43.828;2024-01-11T09:03:38;10.48;;;4.20;;
83835;SDS011;73859;40.830;43.828;2024-01-11T09:06:06;8.82;;;4.68;;
83835;SDS011;73859;40.830;43.828;2024-01-11T09:08:34;11.05;;;5.65;;
83835;SDS011;73859;40.830;43.828;2024-01-11T09:11:01;11.73;;;5.30;;
83835;SDS011;73859;40.830;43.828;2024-01-11T09:13:28;10.90;;;5.00;;
83835;SDS011;73859;40.830;43.828;2024-01-11T09:15:56;12.35;;;4.57;;
83835;SDS011;73859;40.830;43.828;2024-01-11T09:18:24;9.98;;;4.40;;
83835;SDS011;73859;40.830;43.828;2024-01-11T09:20:51;10.73;;;4.57;;
83835;SDS011;73859;40.830;43.828;2024-01-11T09:23:19;8.13;;;3.75;;
83835;SDS011;73859;40.830;43.828;2024-01-11T09:25:46;10.85;;;4.45;;
83835;SDS011;73859;40.830;43.828;2024-01-11T09:28:14;8.15;;;3.60;;
83835;SDS011;73859;40.830;43.828;2024-01-11T09:30:42;6.03;;;4.00;;
83835;SDS011;73859;40.830;43.828;2024-01-11T09:33:10;11.10;;;4.60;;
83835;SDS011;73859;40.830;43.828;2024-01-11T09:35:37;12.52;;;4.55;;
83835;SDS011;73859;40.830;43.828;2024-01-11T09:38:05;8.20;;;4.03;;
83835;SDS011;73859;40.830;43.828;2024-01-11T09:40:32;8.13;;;4.68;;
83835;SDS011;73859;40.830;43.828;2024-01-11T09:43:01;7.88;;;4.03;;
83835;SDS011;73859;40.830;43.828;2024-01-11T09:45:31;8.35;;;4.13;;
83835;SDS011;73859;40.830;43.828;2024-01-11T09:47:59;6.55;;;3.70;;
83835;SDS011;73859;40.830;43.828;2024-01-11T09:50:28;6.03;;;4.07;;
83835;SDS011;73859;40.830;43.828;2024-01-11T09:52:56;7.72;;;3.92;;
83835;SDS011;73859;40.830;43.828;2024-01-11T09:55:24;6.20;;;3.60;;
83835;SDS011;73859;40.830;43.828;2024-01-11T09:57:52;8.55;;;3.80;;
83835;SDS011;73859;40.830;43.828;2024-01-11T10:00:24;7.85;;;3.92;;
83835;SDS011;73859;40.830;43.828;2024-01-11T10:02:53;7.25;;;4.00;;
83835;SDS011;73859;40.830;43.828;2024-01-11T10:05:21;6.22;;;3.75;;
83835;SDS011;73859;40.830;43.828;2024-01-11T10:07:49;9.80;;;4.00;;
83835;SDS011;73859;40.830;43.828;2024-01-11T10:10:17;7.70;;;4.60;;
83835;SDS011;73859;40.830;43.828;2024-01-11T10:12:44;9.75;;;4.38;;
83835;SDS011;73859;40.830;43.828;2024-01-11T10:15:12;8.05;;;2.95;;
83835;SDS011;73859;40.830;43.828;2024-01-11T10:17:45;5.40;;;3.05;;
83835;SDS011;73859;40.830;43.828;2024-01-11T10:20:13;6.10;;;2.42;;
83835;SDS011;73859;40.830;43.828;2024-01-11T10:22:42;9.00;;;3.35;;
83835;SDS011;73859;40.830;43.828;2024-01-11T10:25:10;4.15;;;2.13;;
83835;SDS011;73859;40.830;43.828;2024-01-11T10:27:42;3.15;;;1.67;;
83835;SDS011;73859;40.830;43.828;2024-01-11T10:30:11;3.10;;;1.65;;
83835;SDS011;73859;40.830;43.828;2024-01-11T10:32:40;3.95;;;1.70;;
83835;SDS011;73859;40.830;43.828;2024-01-11T10:35:08;3.55;;;1.83;;
83835;SDS011;73859;40.830;43.828;2024-01-11T10:37:36;3.35;;;1.58;;
83835;SDS011;73859;40.830;43.828;2024-01-11T10:40:08;2.80;;;1.70;;
83835;SDS011;73859;40.830;43.828;2024-01-11T10:42:43;4.28;;;2.25;;
83835;SDS011;73859;40.830;43.828;2024-01-11T10:45:15;8.40;;;5.53;;
83835;SDS011;73859;40.830;43.828;2024-01-11T10:50:36;4.93;;;1.80;;
83835;SDS011;73859;40.830;43.828;2024-01-11T10:55:58;5.05;;;2.25;;
83835;SDS011;73859;40.830;43.828;2024-01-11T10:58:26;4.35;;;2.05;;
83835;SDS011;73859;40.830;43.828;2024-01-11T11:00:54;8.15;;;4.13;;
83835;SDS011;73859;40.830;43.828;2024-01-11T11:03:23;4.38;;;2.08;;
83835;SDS011;73859;40.830;43.828;2024-01-11T11:05:53;3.45;;;2.03;;
83835;SDS011;73859;40.830;43.828;2024-01-11T11:08:23;4.70;;;2.05;;
83835;SDS011;73859;40.830;43.828;2024-01-11T11:10:58;3.60;;;2.03;;
83835;SDS011;73859;40.830;43.828;2024-01-11T11:13:30;5.55;;;2.65;;
83835;SDS011;73859;40.830;43.828;2024-01-11T11:15:59;4.45;;;2.10;;
83835;SDS011;73859;40.830;43.828;2024-01-11T11:18:28;4.35;;;2.10;;
83835;SDS011;73859;40.830;43.828;2024-01-11T11:21:00;3.90;;;1.98;;
83835;SDS011;73859;40.830;43.828;2024-01-11T11:23:28;3.67;;;1.95;;
83835;SDS011;73859;40.830;43.828;2024-01-11T11:25:55;5.68;;;2.20;;
83835;SDS011;73859;40.830;43.828;2024-01-11T11:28:23;5.78;;;2.50;;
83835;SDS011;73859;40.830;43.828;2024-01-11T11:30:52;3.90;;;2.17;;
83835;SDS011;73859;40.830;43.828;2024-01-11T11:33:21;4.80;;;2.25;;
83835;SDS011;73859;40.830;43.828;2024-01-11T11:35:52;5.15;;;2.58;;
83835;SDS011;73859;40.830;43.828;2024-01-11T11:38:24;4.50;;;2.28;;
83835;SDS011;73859;40.830;43.828;2024-01-11T11:40:54;5.07;;;2.33;;
83835;SDS011;73859;40.830;43.828;2024-01-11T11:43:27;5.35;;;2.08;;
83835;SDS011;73859;40.830;43.828;2024-01-11T11:45:55;5.22;;;1.67;;
83835;SDS011;73859;40.830;43.828;2024-01-11T11:51:18;3.85;;;1.88;;
83835;SDS011;73859;40.830;43.828;2024-01-11T11:53:47;3.42;;;1.80;;
83835;SDS011;73859;40.830;43.828;2024-01-11T11:56:22;3.45;;;2.03;;
83835;SDS011;73859;40.830;43.828;2024-01-11T11:58:50;4.47;;;2.35;;
83835;SDS011;73859;40.830;43.828;2024-01-11T12:01:20;5.50;;;2.90;;
83835;SDS011;73859;40.830;43.828;2024-01-11T12:03:47;3.70;;;1.80;;
83835;SDS011;73859;40.830;43.828;2024-01-11T12:06:18;3.20;;;1.65;;
83835;SDS011;73859;40.830;43.828;2024-01-11T12:08:48;4.10;;;2.08;;
83835;SDS011;73859;40.830;43.828;2024-01-11T12:11:19;4.07;;;1.90;;
83835;SDS011;73859;40.830;43.828;2024-01-11T12:13:48;3.80;;;2.03;;
83835;SDS011;73859;40.830;43.828;2024-01-11T12:16:17;4.32;;;2.45;;
83835;SDS011;73859;40.830;43.828;2024-01-11T12:18:44;6.63;;;2.63;;
83835;SDS011;73859;40.830;43.828;2024-01-11T12:21:12;3.85;;;2.30;;
83835;SDS011;73859;40.830;43.828;2024-01-11T12:23:39;5.00;;;2.78;;
83835;SDS011;73859;40.830;43.828;2024-01-11T12:26:07;5.68;;;2.63;;
83835;SDS011;73859;40.830;43.828;2024-01-11T12:28:41;3.58;;;2.20;;
83835;SDS011;73859;40.830;43.828;2024-01-11T12:31:11;4.35;;;2.38;;
83835;SDS011;73859;40.830;43.828;2024-01-11T12:33:39;4.88;;;2.78;;
83835;SDS011;73859;40.830;43.828;2024-01-11T12:36:08;4.55;;;3.15;;
83835;SDS011;73859;40.830;43.828;2024-01-11T12:38:37;3.97;;;2.33;;
83835;SDS011;73859;40.830;43.828;2024-01-11T12:41:05;4.40;;;2.60;;
83835;SDS011;73859;40.830;43.828;2024-01-11T12:43:33;4.20;;;2.53;;
83835;SDS011;73859;40.830;43.828;2024-01-11T12:46:01;5.85;;;2.60;;
83835;SDS011;73859;40.830;43.828;2024-01-11T12:48:29;8.95;;;4.28;;
83835;SDS011;73859;40.830;43.828;2024-01-11T12:50:57;4.78;;;2.65;;
83835;SDS011;73859;40.830;43.828;2024-01-11T12:53:46;11.52;;;3.97;;
83835;SDS011;73859;40.830;43.828;2024-01-11T12:56:18;7.40;;;5.13;;
83835;SDS011;73859;40.830;43.828;2024-01-11T12:58:49;38.47;;;19.80;;
83835;SDS011;73859;40.830;43.828;2024-01-11T13:01:17;22.10;;;13.10;;
83835;SDS011;73859;40.830;43.828;2024-01-11T13:03:45;8.85;;;5.38;;
83835;SDS011;73859;40.830;43.828;2024-01-11T13:08:42;8.57;;;3.88;;
83835;SDS011;73859;40.830;43.828;2024-01-11T13:11:10;10.18;;;5.57;;
83835;SDS011;73859;40.830;43.828;2024-01-11T13:13:41;6.68;;;3.83;;
83835;SDS011;73859;40.830;43.828;2024-01-11T13:16:09;7.70;;;4.45;;
83835;SDS011;73859;40.830;43.828;2024-01-11T13:18:39;9.75;;;5.05;;
83835;SDS011;73859;40.830;43.828;2024-01-11T13:21:07;14.40;;;9.00;;
83835;SDS011;73859;40.830;43.828;2024-01-11T13:23:34;11.95;;;5.07;;
83835;SDS011;73859;40.830;43.828;2024-01-11T13:26:05;5.47;;;3.03;;
83835;SDS011;73859;40.830;43.828;2024-01-11T13:28:33;5.25;;;2.92;;
83835;SDS011;73859;40.830;43.828;2024-01-11T13:31:01;5.85;;;3.17;;
83835;SDS011;73859;40.830;43.828;2024-01-11T13:33:29;35.33;;;15.10;;
83835;SDS011;73859;40.830;43.828;2024-01-11T13:35:57;18.35;;;10.55;;
83835;SDS011;73859;40.830;43.828;2024-01-11T13:38:25;15.60;;;7.82;;
83835;SDS011;73859;40.830;43.828;2024-01-11T13:40:53;14.30;;;7.72;;
83835;SDS011;73859;40.830;43.828;2024-01-11T13:43:20;13.07;;;6.40;;
83835;SDS011;73859;40.830;43.828;2024-01-11T13:45:48;16.23;;;10.85;;
83835;SDS011;73859;40.830;43.828;2024-01-11T13:48:16;9.15;;;5.03;;
83835;SDS011;73859;40.830;43.828;2024-01-11T13:50:44;7.55;;;4.20;;
83835;SDS011;73859;40.830;43.828;2024-01-11T13:53:12;8.18;;;4.32;;
83835;SDS011;73859;40.830;43.828;2024-01-11T13:55:39;8.10;;;4.88;;
83835;SDS011;73859;40.830;43.828;2024-01-11T13:58:07;11.35;;;5.68;;
83835;SDS011;73859;40.830;43.828;2024-01-11T14:00:35;34.42;;;16.05;;
83835;SDS011;73859;40.830;43.828;2024-01-11T14:03:03;17.27;;;9.98;;
83835;SDS011;73859;40.830;43.828;2024-01-11T14:05:33;27.52;;;11.63;;
83835;SDS011;73859;40.830;43.828;2024-01-11T14:08:01;65.70;;;30.23;;
83835;SDS011;73859;40.830;43.828;2024-01-11T14:10:33;40.92;;;17.45;;
83835;SDS011;73859;40.830;43.828;2024-01-11T14:13:01;90.97;;;43.70;;
83835;SDS011;73859;40.830;43.828;2024-01-11T14:15:29;24.20;;;12.45;;
83835;SDS011;73859;40.830;43.828;2024-01-11T14:17:58;34.50;;;17.08;;
83835;SDS011;73859;40.830;43.828;2024-01-11T14:22:10;17.98;;;8.13;;
83835;SDS011;73859;40.830;43.828;2024-01-11T14:24:37;23.25;;;9.65;;
83835;SDS011;73859;40.830;43.828;2024-01-11T14:27:05;28.48;;;11.35;;
83835;SDS011;73859;40.830;43.828;2024-01-11T14:29:33;31.63;;;12.98;;
83835;SDS011;73859;40.830;43.828;2024-01-11T14:32:00;24.83;;;13.25;;
83835;SDS011;73859;40.830;43.828;2024-01-11T14:34:28;30.05;;;11.23;;
83835;SDS011;73859;40.830;43.828;2024-01-11T14:36:55;27.58;;;11.32;;
83835;SDS011;73859;40.830;43.828;2024-01-11T14:39:23;17.80;;;9.40;;
83835;SDS011;73859;40.830;43.828;2024-01-11T14:41:54;15.35;;;7.35;;
83835;SDS011;73859;40.830;43.828;2024-01-11T14:44:21;15.93;;;8.90;;
83835;SDS011;73859;40.830;43.828;2024-01-11T14:46:49;10.15;;;5.68;;
83835;SDS011;73859;40.830;43.828;2024-01-11T14:49:16;8.80;;;4.00;;
83835;SDS011;73859;40.830;43.828;2024-01-11T14:51:44;9.75;;;4.68;;
83835;SDS011;73859;40.830;43.828;2024-01-11T14:54:12;10.13;;;4.85;;
83835;SDS011;73859;40.830;43.828;2024-01-11T14:56:39;9.18;;;5.95;;
83835;SDS011;73859;40.830;43.828;2024-01-11T14:59:07;13.35;;;6.20;;
83835;SDS011;73859;40.830;43.828;2024-01-11T15:01:34;12.52;;;6.30;;
83835;SDS011;73859;40.830;43.828;2024-01-11T15:04:02;12.05;;;4.93;;
83835;SDS011;73859;40.830;43.828;2024-01-11T15:06:29;9.88;;;4.47;;
83835;SDS011;73859;40.830;43.828;2024-01-11T15:08:57;9.65;;;4.72;;
83835;SDS011;73859;40.830;43.828;2024-01-11T15:11:24;9.00;;;5.00;;
83835;SDS011;73859;40.830;43.828;2024-01-11T15:13:52;10.82;;;4.72;;
83835;SDS011;73859;40.830;43.828;2024-01-11T15:16:20;6.85;;;4.03;;